• Join FlightAware (Why Join?)
  • Login
  • US Flag 
07:35AM EDT


 

Airport Tracker/Info


-or-


 

Live Flight TrackerFlight Track Log ✈ SWA896 ✈ 25-Apr-2013 ✈ KLAS - KSMF

Flight Track Log - Related Links

Times and Time Zones

All times are in EDT time to prevent confusion due to time zone crossing. See the SWA896 flight status page for this flight to view local times or setup timezone preferences in your user account.

Time Position Orientation Groundspeed Altitude Reporting Facility
EDT Latitude Longitude Course Direction KTS MPH feet Rate Location/Type
01:54PM 36.0758 -115.1764 271° West 199 229 3,500  Level Los Angeles Center
01:55PM 36.0761 -115.1975 271° West 190 219 3,900 1,800 Climbing Los Angeles Center
01:56PM 36.0614 -115.2564 253° West 238 274 5,700 2,040 Climbing Los Angeles Center
01:57PM 35.9889 -115.2925 202° Southwest 278 320 7,900 2,400 Climbing Los Angeles Center
01:58PM 35.9192 -115.3711 222° Southwest 317 365 10,900 2,400 Climbing Los Angeles Center
01:59PM 35.9139 -115.4758 266° West 333 383 12,900 2,520 Climbing Los Angeles Center
02:00PM 35.9086 -115.6158 267° West 370 426 16,000 2,880 Climbing Los Angeles Center
02:01PM 35.9033 -115.7572 267° West 383 441 18,900 2,400 Climbing Los Angeles Center
02:02PM 35.8989 -115.8950 268° West 401 461 21,100 2,100 Climbing Los Angeles Center
02:03PM 35.9444 -116.0261 293° West 410 472 23,300 1,860 Climbing Los Angeles Center
02:04PM 36.0172 -116.1097 317° Northwest 410 472 25,000 1,620 Climbing Los Angeles Center
02:05PM 36.1103 -116.2161 317° Northwest 419 482 26,700 1,560 Climbing Los Angeles Center
02:06PM 36.1978 -116.3169 317° Northwest 429 494 28,300 1,740 Climbing Los Angeles Center
02:07PM 36.3031 -116.4392 317° Northwest 433 498 30,300 1,620 Climbing Los Angeles Center
02:08PM 36.3906 -116.5419 317° Northwest 435 501 31,700 780 Climbing Los Angeles Center
02:09PM 36.4781 -116.6425 317° Northwest 432 497 32,000 120 Climbing Los Angeles Center
02:10PM 36.5617 -116.7408 317° Northwest 434 499 32,000  Level Los Angeles Center
02:11PM 36.6836 -116.8364 328° Northwest 433 498 32,000  Level Los Angeles Center
02:12PM 36.7700 -116.9022 329° Northwest 433 498 32,000  Level Los Angeles Center
02:13PM 36.8889 -116.9933 329° Northwest 431 496 32,000  Level Los Angeles Center
02:14PM 36.9294 -117.0269 326° Northwest 431 496 32,000  Level Oakland Center
02:15PM 37.0317 -117.1050 329° Northwest 431 496 32,000  Level Oakland Center
02:16PM 37.1350 -117.1850 328° Northwest 433 498 32,000  Level Oakland Center
02:17PM 37.2381 -117.2650 328° Northwest 434 499 32,000  Level Oakland Center
02:18PM 37.3386 -117.3472 327° Northwest 430 495 32,000  Level Oakland Center
02:19PM 37.4328 -117.4933 309° West 446 513 32,000  Level Oakland Center
02:20PM 37.5117 -117.6111 310° West 441 507 32,000  Level Oakland Center
02:21PM 37.5894 -117.7303 309° West 439 505 32,000  Level Oakland Center
02:22PM 37.6672 -117.8503 309° West 440 506 32,000  Level Oakland Center
02:23PM 37.7444 -117.9692 309° West 438 504 32,000  Level Oakland Center
02:24PM 37.8225 -118.0894 309° West 439 505 32,000  Level Oakland Center
02:25PM 37.8983 -118.2089 309° West 436 502 32,000  Level Oakland Center
02:26PM 37.9750 -118.3278 309° West 434 499 32,000  Level Oakland Center
02:27PM 38.0503 -118.4456 309° West 431 496 32,000 -360 Level Oakland Center
02:28PM 38.1256 -118.5650 309° West 431 496 31,300 -840 Descending Oakland Center
02:29PM 38.2028 -118.6861 309° West 430 495 30,400 -660 Descending Oakland Center
02:30PM 38.2933 -118.8292 309° West 432 497 30,000 -480 Descending Oakland Center
02:31PM 38.3608 -118.9567 304° West 436 502 29,500 -780 Descending Oakland Center
02:32PM 38.4067 -119.1039 292° West 444 511 28,500 -1,020 Descending Oakland Center
02:33PM 38.4553 -119.2522 293° West 451 519 27,500 -1,020 Descending Oakland Center
02:34PM 38.5008 -119.3975 292° West 441 507 26,500 -1,020 Descending Oakland Center
02:35PM 38.5456 -119.5414 292° West 435 501 25,500 -1,020 Descending Oakland Center
02:36PM 38.5908 -119.6831 292° West 430 495 24,400 -780 Descending Oakland Center
02:37PM 38.6378 -119.8314 292° West 426 490 24,000 -480 Descending Oakland Center
02:38PM 38.6811 -119.9717 292° West 425 489 23,500 -780 Descending Oakland Center
02:39PM 38.7236 -120.1117 291° West 423 487 22,500 -1,500 Descending Oakland Center
02:40PM 38.7578 -120.2517 287° West 415 478 20,500 -2,340 Descending Oakland Center
02:41PM 38.8083 -120.4092 292° West 400 460 17,700 -2,220 Descending Oakland Center
02:42PM 38.8483 -120.5361 292° West 388 447 16,000 -900 Descending Oakland Center
02:43PM 38.8867 -120.6592 292° West 376 433 15,900 -1,080 Descending Oakland Center
02:44PM 38.9256 -120.7828 292° West 376 433 13,800 -2,040 Descending Oakland Center
02:45PM 38.9625 -120.9025 292° West 365 420 11,800 -1,860 Descending Oakland Center
02:46PM 38.9869 -121.0203 285° West 355 409 10,000 -900 Descending Oakland Center
02:47PM 38.9761 -121.1256 262° West 298 343 10,000 -300 Level Oakland Center
02:48PM 38.9833 -121.2000 277° West 284 327 9,500 -1,260 Descending Northern Cal TRACON
02:49PM 38.9667 -121.3000 258° West 269 310 8,000 -1,860 Descending Northern Cal TRACON
02:50PM 38.9667 -121.4167 270° West 269 310 5,700 -1,980 Descending Northern Cal TRACON
02:51PM 38.9167 -121.5000 232° Southwest 272 313 3,900 -1,680 Descending Northern Cal TRACON
02:52PM 38.8667 -121.5500 218° Southwest 264 304 2,400 -1,020 Descending Northern Cal TRACON
02:53PM 38.8167 -121.6000 218° Southwest 246 283 1,900 -600 Descending Northern Cal TRACON
02:54PM 38.7667 -121.6000 180° South 167 192 1,200 -780 Descending Northern Cal TRACON
02:55PM 38.7167 -121.6000 180° South 150 173 400 -840 Descending Northern Cal TRACON
02:58PM 38.6954 -121.5908 218° Southwest  Level Estimated
03:05PM 38.6954 -121.5908 218° Southwest  Level Estimated